createdAt,value
2022-10-08T00:02:44.940Z,13.44
2022-10-08T00:05:31.462Z,13.05
2022-10-08T00:08:17.326Z,13.32
2022-10-08T00:11:13.253Z,12.85
2022-10-08T00:13:59.894Z,13.54
2022-10-08T00:16:46.464Z,13.32
2022-10-08T00:19:32.436Z,13.18
2022-10-08T00:22:19.062Z,13.44
2022-10-08T00:25:05.288Z,13.67
2022-10-08T00:27:51.417Z,13.16
2022-10-08T00:30:39.824Z,13.29
2022-10-08T00:33:26.205Z,13.39
2022-10-08T00:36:13.433Z,13.07
2022-10-08T00:39:02.841Z,13.19
2022-10-08T00:41:52.284Z,13.22
2022-10-08T00:44:59.454Z,12.92
2022-10-08T00:47:48.414Z,12.65
2022-10-08T00:50:35.963Z,12.68
2022-10-08T00:53:21.801Z,12.79
2022-10-08T00:56:09.193Z,13.18
2022-10-08T00:58:55.610Z,13.22
2022-10-08T01:01:43.570Z,13.46
2022-10-08T01:04:29.902Z,13.21
2022-10-08T01:07:30.361Z,12.69
2022-10-08T01:10:22.625Z,12.05
2022-10-08T01:13:29.393Z,12.50
2022-10-08T01:16:34.969Z,12.62
2022-10-08T01:19:39.115Z,12.72
2022-10-08T01:22:38.863Z,12.18
2022-10-08T01:25:35.519Z,12.15
2022-10-08T01:28:39.874Z,12.48
2022-10-08T01:31:41.090Z,12.92
2022-10-08T01:34:37.668Z,12.30
2022-10-08T01:37:29.530Z,12.59
2022-10-08T01:40:20.340Z,12.75
2022-10-08T01:43:08.646Z,11.75
2022-10-08T01:45:57.362Z,12.53
2022-10-08T01:48:44.184Z,12.30
2022-10-08T01:51:40.988Z,12.22
2022-10-08T01:54:28.910Z,12.12
2022-10-08T01:57:14.966Z,12.57
2022-10-08T02:00:08.206Z,11.67
2022-10-08T02:02:57.964Z,12.45
2022-10-08T02:05:48.229Z,11.83
2022-10-08T02:08:34.322Z,11.98
2022-10-08T02:11:20.913Z,11.30
2022-10-08T02:14:07.394Z,11.72
2022-10-08T02:17:01.362Z,11.22
2022-10-08T02:19:53.398Z,11.75
2022-10-08T02:22:58.920Z,11.40
2022-10-08T02:25:48.220Z,12.00
2022-10-08T02:28:44.717Z,11.79
2022-10-08T02:32:06.160Z,11.42
2022-10-08T02:35:15.274Z,11.51
2022-10-08T02:38:06.901Z,11.65
2022-10-08T02:40:57.037Z,11.13
2022-10-08T02:43:47.168Z,11.69
2022-10-08T02:46:37.940Z,11.18
2022-10-08T02:49:27.639Z,11.93
2022-10-08T02:52:14.646Z,11.59
2022-10-08T02:55:01.598Z,11.52
2022-10-08T02:57:55.792Z,11.82
2022-10-08T03:01:04.113Z,11.86
2022-10-08T03:03:57.244Z,12.09
2022-10-08T03:06:43.665Z,11.82
2022-10-08T03:09:42.591Z,11.79
2022-10-08T03:12:30.349Z,11.43
2022-10-08T03:15:16.447Z,10.89
2022-10-08T03:18:04.322Z,10.30
2022-10-08T03:20:51.594Z,11.03
2022-10-08T03:23:37.571Z,10.45
2022-10-08T03:26:23.955Z,11.23
2022-10-08T03:29:10.082Z,10.42
2022-10-08T03:31:56.558Z,11.07
2022-10-08T03:34:42.439Z,11.44
2022-10-08T03:37:28.626Z,11.57
2022-10-08T03:40:14.809Z,11.40
2022-10-08T03:43:01.092Z,11.23
2022-10-08T03:45:53.767Z,11.25
2022-10-08T03:48:40.991Z,11.74
2022-10-08T03:51:27.223Z,11.71
2022-10-08T03:54:13.640Z,11.00
2022-10-08T03:56:59.431Z,11.66
2022-10-08T03:59:45.745Z,10.56
2022-10-08T04:02:35.102Z,8.89
2022-10-08T04:05:21.657Z,9.32
2022-10-08T04:08:07.445Z,10.41
2022-10-08T04:10:54.092Z,11.16
2022-10-08T04:13:40.936Z,11.11
2022-10-08T04:16:27.165Z,11.33
2022-10-08T04:19:13.135Z,11.10
2022-10-08T04:21:59.413Z,11.46
2022-10-08T04:24:45.771Z,11.58
2022-10-08T04:27:32.282Z,11.11
2022-10-08T04:30:18.490Z,11.20
2022-10-08T04:33:04.864Z,11.33
2022-10-08T04:35:50.764Z,11.66
2022-10-08T04:38:37.054Z,11.43
2022-10-08T04:41:25.640Z,11.22
2022-10-08T04:44:12.185Z,11.20
2022-10-08T04:46:57.991Z,10.96
2022-10-08T04:49:44.940Z,11.10
2022-10-08T04:52:31.925Z,11.41
2022-10-08T04:55:18.432Z,11.38
2022-10-08T04:58:04.627Z,10.97
2022-10-08T05:00:51.751Z,10.69
2022-10-08T05:03:43.141Z,10.71
2022-10-08T05:06:30.639Z,10.82
2022-10-08T05:09:16.693Z,11.19
2022-10-08T05:12:02.982Z,11.07
2022-10-08T05:14:49.294Z,11.17
2022-10-08T05:17:35.713Z,11.52
2022-10-08T05:20:21.591Z,11.42
2022-10-08T05:23:07.940Z,11.62
2022-10-08T05:25:53.683Z,11.54
2022-10-08T05:28:40.142Z,11.29
2022-10-08T05:31:28.107Z,11.58
2022-10-08T05:34:15.479Z,11.14
2022-10-08T05:37:02.017Z,10.85
2022-10-08T05:39:48.352Z,9.96
2022-10-08T05:42:34.491Z,10.19
2022-10-08T05:45:20.888Z,10.84
2022-10-08T05:48:06.659Z,10.96
2022-10-08T05:50:53.008Z,10.43
2022-10-08T05:53:40.301Z,10.66
2022-10-08T05:56:27.701Z,10.60
2022-10-08T05:59:22.722Z,9.34
2022-10-08T06:02:10.502Z,10.65
2022-10-08T06:04:57.259Z,9.43
2022-10-08T06:07:43.453Z,10.60
2022-10-08T06:10:32.013Z,11.18
2022-10-08T06:13:19.733Z,11.07
2022-10-08T06:16:08.520Z,10.66
2022-10-08T06:18:54.524Z,10.13
2022-10-08T06:21:40.883Z,10.44
2022-10-08T06:24:27.255Z,11.15
2022-10-08T06:27:13.541Z,11.40
2022-10-08T06:29:59.986Z,11.63
2022-10-08T06:32:46.678Z,12.05
2022-10-08T06:35:32.547Z,11.86
2022-10-08T06:38:19.204Z,12.00
2022-10-08T06:41:05.718Z,12.04
2022-10-08T06:43:52.541Z,12.52
2022-10-08T06:46:38.838Z,13.19
2022-10-08T06:49:26.804Z,13.33
2022-10-08T06:52:13.100Z,13.40
2022-10-08T06:54:59.476Z,13.75
2022-10-08T06:57:48.358Z,13.83
2022-10-08T07:00:35.171Z,13.74
2022-10-08T07:03:21.344Z,13.91
2022-10-08T07:06:10.193Z,14.18
2022-10-08T07:09:00.116Z,14.42
2022-10-08T07:11:46.366Z,14.55
2022-10-08T07:14:32.680Z,14.54
2022-10-08T07:17:19.314Z,14.48
2022-10-08T07:20:06.188Z,14.76
2022-10-08T07:22:52.550Z,15.16
2022-10-08T07:25:38.661Z,15.31
2022-10-08T07:28:26.413Z,15.09
2022-10-08T07:31:21.440Z,15.24
2022-10-08T07:34:11.321Z,15.28
2022-10-08T07:36:57.303Z,15.29
2022-10-08T07:39:43.866Z,15.07
2022-10-08T07:42:31.730Z,15.29
2022-10-08T07:45:18.286Z,15.83
2022-10-08T07:48:04.562Z,16.19
2022-10-08T07:50:51.039Z,15.57
2022-10-08T07:53:37.058Z,15.98
2022-10-08T07:56:23.612Z,16.29
2022-10-08T07:59:09.698Z,16.05
2022-10-08T08:01:56.207Z,16.24
2022-10-08T08:04:42.639Z,16.91
2022-10-08T08:07:29.502Z,15.84
2022-10-08T08:10:15.853Z,16.58
2022-10-08T08:13:01.813Z,16.98
2022-10-08T08:15:48.093Z,16.92
2022-10-08T08:18:37.152Z,16.99
2022-10-08T08:21:33.949Z,17.12
2022-10-08T08:24:19.970Z,17.16
2022-10-08T08:27:06.400Z,17.20
2022-10-08T08:29:52.756Z,17.77
2022-10-08T08:32:39.138Z,17.78
2022-10-08T08:35:25.695Z,16.94
2022-10-08T08:38:11.853Z,16.95
2022-10-08T08:41:11.836Z,17.37
2022-10-08T08:44:02.694Z,17.12
2022-10-08T08:46:59.126Z,17.84
2022-10-08T08:50:21.329Z,17.51
2022-10-08T08:53:09.502Z,17.44
2022-10-08T08:55:58.889Z,18.01
2022-10-08T08:59:05.307Z,17.95
2022-10-08T09:01:54.837Z,18.05
2022-10-08T09:04:45.492Z,18.63
2022-10-08T09:07:55.699Z,18.26
2022-10-08T09:10:47.716Z,18.69
2022-10-08T09:13:37.917Z,18.72
2022-10-08T09:16:25.417Z,18.88
2022-10-08T09:19:12.208Z,18.14
2022-10-08T09:21:58.113Z,18.80
2022-10-08T09:24:44.525Z,19.26
2022-10-08T09:28:05.961Z,19.64
2022-10-08T09:30:53.438Z,19.54
2022-10-08T09:33:41.787Z,19.39
2022-10-08T09:36:35.205Z,19.82
2022-10-08T09:39:22.144Z,19.71
2022-10-08T09:42:08.359Z,20.05
2022-10-08T09:45:00.648Z,20.42
2022-10-08T09:48:10.102Z,21.23
2022-10-08T09:51:00.437Z,21.00
2022-10-08T09:53:50.094Z,21.99
2022-10-08T09:56:35.932Z,21.06
2022-10-08T09:59:23.713Z,21.75
2022-10-08T10:02:39.167Z,21.97
2022-10-08T10:05:27.522Z,20.86
2022-10-08T10:08:43.373Z,21.03
2022-10-08T10:11:34.828Z,22.01
2022-10-08T10:14:28.227Z,21.33
2022-10-08T10:17:39.552Z,22.80
2022-10-08T10:20:37.447Z,23.24
2022-10-08T10:23:50.439Z,23.43
2022-10-08T10:26:39.445Z,23.62
2022-10-08T10:29:30.869Z,23.46
2022-10-08T10:32:21.054Z,24.70
2022-10-08T10:35:12.602Z,24.14
2022-10-08T10:38:00.411Z,24.52
2022-10-08T10:40:55.960Z,24.20
2022-10-08T10:43:53.055Z,23.90
2022-10-08T10:46:41.864Z,24.00
2022-10-08T10:49:38.304Z,24.71
2022-10-08T10:52:24.417Z,23.38
2022-10-08T10:55:13.105Z,23.27
2022-10-08T10:58:06.844Z,22.51
2022-10-08T11:01:12.100Z,23.19
2022-10-08T11:03:58.365Z,23.70
2022-10-08T11:06:53.976Z,23.17
2022-10-08T11:09:40.813Z,22.26
2022-10-08T11:12:33.663Z,23.25
2022-10-08T11:15:23.103Z,23.50
2022-10-08T11:18:21.262Z,22.98
2022-10-08T11:21:19.824Z,22.85
2022-10-08T11:24:05.491Z,22.59
2022-10-08T11:27:04.383Z,23.17
2022-10-08T11:30:19.868Z,23.24
2022-10-08T11:33:06.061Z,21.26
2022-10-08T11:36:07.600Z,22.16
2022-10-08T11:39:04.880Z,22.57
2022-10-08T11:41:59.865Z,22.74
2022-10-08T11:44:46.302Z,22.87
2022-10-08T11:47:35.127Z,23.01
2022-10-08T11:50:30.741Z,22.66
2022-10-08T11:53:18.348Z,22.77
2022-10-08T11:56:04.396Z,23.19
2022-10-08T11:58:53.364Z,21.93
2022-10-08T12:02:00.094Z,22.98
2022-10-08T12:04:46.775Z,23.08
2022-10-08T12:07:36.515Z,22.41
2022-10-08T12:10:29.758Z,22.84
2022-10-08T12:13:17.918Z,22.99
2022-10-08T12:16:05.229Z,23.35
2022-10-08T12:18:50.988Z,23.30
2022-10-08T12:21:47.057Z,22.57
2022-10-08T12:24:39.344Z,22.70
2022-10-08T12:27:31.943Z,22.69
2022-10-08T12:30:17.949Z,22.95
2022-10-08T12:33:04.288Z,22.97
2022-10-08T12:35:50.112Z,23.17
2022-10-08T12:38:38.811Z,23.09
2022-10-08T12:41:30.522Z,23.06
2022-10-08T12:44:16.780Z,23.42
2022-10-08T12:47:25.965Z,23.18
2022-10-08T12:50:12.173Z,23.53
2022-10-08T12:53:01.814Z,23.38
2022-10-08T12:55:52.343Z,23.42
2022-10-08T12:58:38.292Z,23.31
2022-10-08T13:01:24.705Z,23.86
2022-10-08T13:04:19.044Z,23.93
2022-10-08T13:07:07.411Z,23.15
2022-10-08T13:09:57.362Z,23.34
2022-10-08T13:12:43.780Z,23.16
2022-10-08T13:15:30.714Z,23.52
2022-10-08T13:18:20.977Z,23.33
2022-10-08T13:21:08.092Z,23.35
2022-10-08T13:23:54.217Z,23.22
2022-10-08T13:26:43.162Z,23.37
2022-10-08T13:29:29.489Z,23.53
2022-10-08T13:32:16.080Z,23.51
2022-10-08T13:35:04.235Z,23.48
2022-10-08T13:37:53.111Z,23.93
2022-10-08T13:40:39.302Z,23.93
2022-10-08T13:43:25.797Z,24.02
2022-10-08T13:46:12.182Z,23.52
2022-10-08T13:48:58.361Z,23.97
2022-10-08T13:51:44.666Z,24.09
2022-10-08T13:54:33.360Z,23.52
2022-10-08T13:57:19.485Z,23.63
2022-10-08T14:00:05.560Z,24.00
2022-10-08T14:02:51.955Z,23.71
2022-10-08T14:05:40.423Z,24.14
2022-10-08T14:08:27.514Z,24.12
2022-10-08T14:11:17.494Z,24.07
2022-10-08T14:14:03.819Z,24.32
2022-10-08T14:16:49.879Z,24.64
2022-10-08T14:19:35.844Z,25.05
2022-10-08T14:22:21.627Z,25.44
2022-10-08T14:25:08.585Z,25.34
2022-10-08T14:27:54.408Z,25.61
2022-10-08T14:30:40.298Z,25.66
2022-10-08T14:33:26.129Z,25.49
2022-10-08T14:36:14.820Z,25.52
2022-10-08T14:39:00.685Z,25.54
2022-10-08T14:41:47.149Z,25.04
2022-10-08T14:44:32.762Z,25.01
2022-10-08T14:47:19.098Z,24.96
2022-10-08T14:50:05.515Z,24.97
2022-10-08T14:52:52.072Z,25.12
2022-10-08T14:55:54.700Z,25.23
2022-10-08T14:58:44.675Z,25.09
2022-10-08T15:01:30.468Z,24.85
2022-10-08T15:04:16.620Z,25.07
2022-10-08T15:07:02.344Z,25.46
2022-10-08T15:09:48.823Z,25.91
2022-10-08T15:12:34.792Z,26.31
2022-10-08T15:15:21.368Z,26.03
2022-10-08T15:18:07.880Z,26.31
2022-10-08T15:20:55.690Z,26.14
2022-10-08T15:23:41.612Z,25.76
2022-10-08T15:26:27.866Z,25.42
2022-10-08T15:29:13.824Z,24.93
2022-10-08T15:32:00.164Z,24.73
2022-10-08T15:34:45.942Z,24.64
2022-10-08T15:37:32.354Z,24.31
2022-10-08T15:40:18.194Z,23.98
2022-10-08T15:43:04.686Z,23.91
2022-10-08T15:45:50.756Z,23.52
2022-10-08T15:48:37.578Z,23.25
2022-10-08T15:51:23.987Z,23.35
2022-10-08T15:54:09.972Z,23.18
2022-10-08T15:56:55.761Z,22.85
2022-10-08T15:59:41.800Z,22.78
2022-10-08T16:02:27.878Z,22.62
2022-10-08T16:05:14.194Z,22.32
2022-10-08T16:08:00.360Z,22.34
2022-10-08T16:10:46.595Z,22.14
2022-10-08T16:13:32.374Z,21.89
2022-10-08T16:16:19.186Z,21.93
2022-10-08T16:19:07.944Z,21.81
2022-10-08T16:21:55.309Z,21.48
2022-10-08T16:24:41.120Z,21.24
2022-10-08T16:27:27.371Z,21.04
2022-10-08T16:30:13.389Z,21.02
2022-10-08T16:32:59.671Z,20.71
2022-10-08T16:35:45.356Z,20.71
2022-10-08T16:38:35.566Z,20.53
2022-10-08T16:41:22.301Z,20.61
2022-10-08T16:44:12.329Z,20.59
2022-10-08T16:46:58.447Z,20.21
2022-10-08T16:49:44.908Z,19.91
2022-10-08T16:52:30.849Z,19.80
2022-10-08T16:55:17.105Z,19.91
2022-10-08T16:58:03.063Z,19.69
2022-10-08T17:00:49.050Z,19.59
2022-10-08T17:03:34.864Z,19.51
2022-10-08T17:06:21.311Z,19.39
2022-10-08T17:09:07.654Z,19.19
2022-10-08T17:11:54.128Z,18.99
2022-10-08T17:14:40.021Z,18.80
2022-10-08T17:17:26.315Z,18.66
2022-10-08T17:20:12.256Z,18.57
2022-10-08T17:22:58.730Z,18.48
2022-10-08T17:25:44.573Z,18.31
2022-10-08T17:28:31.888Z,18.12
2022-10-08T17:31:20.339Z,18.22
2022-10-08T17:34:06.684Z,18.12
2022-10-08T17:36:52.745Z,17.88
2022-10-08T17:39:39.247Z,17.93
2022-10-08T17:42:25.123Z,17.76
2022-10-08T17:45:11.752Z,17.58
2022-10-08T17:47:57.614Z,17.56
2022-10-08T17:50:44.112Z,17.76
2022-10-08T17:53:30.230Z,17.57
2022-10-08T17:56:16.981Z,17.56
2022-10-08T17:59:03.049Z,17.52
2022-10-08T18:01:49.414Z,17.39
2022-10-08T18:04:35.535Z,17.27
2022-10-08T18:07:21.390Z,17.15
2022-10-08T18:10:08.128Z,17.08
2022-10-08T18:12:53.855Z,17.05
2022-10-08T18:15:40.381Z,17.00
2022-10-08T18:18:26.496Z,16.72
2022-10-08T18:21:12.955Z,16.86
2022-10-08T18:23:59.134Z,16.95
2022-10-08T18:26:45.565Z,16.54
2022-10-08T18:29:31.409Z,16.68
2022-10-08T18:32:17.336Z,16.12
2022-10-08T18:35:03.321Z,16.68
2022-10-08T18:37:50.073Z,16.57
2022-10-08T18:40:36.285Z,16.54
2022-10-08T18:43:22.500Z,16.45
2022-10-08T18:46:08.409Z,16.43
2022-10-08T18:48:54.632Z,16.37
2022-10-08T18:51:40.101Z,16.32
2022-10-08T18:54:26.043Z,16.38
2022-10-08T18:57:11.680Z,16.30
2022-10-08T18:59:58.064Z,16.17
2022-10-08T19:02:44.267Z,15.86
2022-10-08T19:05:30.300Z,15.74
2022-10-08T19:08:16.139Z,15.35
2022-10-08T19:11:12.792Z,13.86
2022-10-08T19:13:58.406Z,13.99
2022-10-08T19:16:45.087Z,14.61
2022-10-08T19:19:31.896Z,14.50
2022-10-08T19:22:18.086Z,15.18
2022-10-08T19:25:03.954Z,15.11
2022-10-08T19:27:50.295Z,15.58
2022-10-08T19:30:36.187Z,15.55
2022-10-08T19:33:22.542Z,15.46
2022-10-08T19:36:08.498Z,15.48
2022-10-08T19:38:55.653Z,15.56
2022-10-08T19:41:41.634Z,15.56
2022-10-08T19:44:27.734Z,15.52
2022-10-08T19:47:13.614Z,15.39
2022-10-08T19:49:59.908Z,15.39
2022-10-08T19:52:49.739Z,15.23
2022-10-08T19:55:38.292Z,14.99
2022-10-08T19:58:24.234Z,14.89
2022-10-08T20:01:11.764Z,14.13
2022-10-08T20:03:58.297Z,14.58
2022-10-08T20:06:44.152Z,14.23
2022-10-08T20:09:30.978Z,14.20
2022-10-08T20:12:16.885Z,14.51
2022-10-08T20:15:03.328Z,14.50
2022-10-08T20:17:50.566Z,14.63
2022-10-08T20:20:36.837Z,14.75
2022-10-08T20:23:22.619Z,14.94
2022-10-08T20:26:09.449Z,14.96
2022-10-08T20:28:57.377Z,14.95
2022-10-08T20:31:44.724Z,14.91
2022-10-08T20:34:31.695Z,14.82
2022-10-08T20:37:18.106Z,14.89
2022-10-08T20:40:03.927Z,14.32
2022-10-08T20:42:50.758Z,14.04
2022-10-08T20:45:37.004Z,14.37
2022-10-08T20:48:23.322Z,14.51
2022-10-08T20:51:10.434Z,14.42
2022-10-08T20:53:57.750Z,13.67
2022-10-08T20:56:43.587Z,13.50
2022-10-08T20:59:29.857Z,13.74
2022-10-08T21:02:19.616Z,14.10
2022-10-08T21:05:06.186Z,14.54
2022-10-08T21:07:52.017Z,14.81
2022-10-08T21:10:38.569Z,14.80
2022-10-08T21:13:24.531Z,14.97
2022-10-08T21:16:12.753Z,14.91
2022-10-08T21:19:02.185Z,13.69
2022-10-08T21:21:48.688Z,13.75
2022-10-08T21:24:35.865Z,12.97
2022-10-08T21:27:21.867Z,13.93
2022-10-08T21:30:08.079Z,13.94
2022-10-08T21:32:55.161Z,13.04
2022-10-08T21:35:41.305Z,13.44
2022-10-08T21:38:30.475Z,13.53
2022-10-08T21:41:17.230Z,12.76
2022-10-08T21:44:04.114Z,12.69
2022-10-08T21:46:49.959Z,13.19
2022-10-08T21:49:36.536Z,13.38
2022-10-08T21:52:21.968Z,14.20
2022-10-08T21:55:08.620Z,14.36
2022-10-08T21:57:54.234Z,13.12
2022-10-08T22:00:40.204Z,12.95
2022-10-08T22:03:26.510Z,12.82
2022-10-08T22:06:12.215Z,12.60
2022-10-08T22:08:58.393Z,12.40
2022-10-08T22:11:44.704Z,13.43
2022-10-08T22:14:30.781Z,14.06
2022-10-08T22:17:16.744Z,14.28
2022-10-08T22:20:03.179Z,14.41
2022-10-08T22:22:49.432Z,14.41
2022-10-08T22:25:36.228Z,14.41
2022-10-08T22:28:22.033Z,14.04
2022-10-08T22:31:08.821Z,14.11
2022-10-08T22:33:54.789Z,14.33
2022-10-08T22:36:41.835Z,14.31
2022-10-08T22:39:27.523Z,14.25
2022-10-08T22:42:14.049Z,14.18
2022-10-08T22:44:59.877Z,14.11
2022-10-08T22:47:46.334Z,14.13
2022-10-08T22:50:33.627Z,14.13
2022-10-08T22:53:19.982Z,14.17
2022-10-08T22:56:13.156Z,14.10
2022-10-08T22:58:59.813Z,13.99
2022-10-08T23:01:45.891Z,13.99
2022-10-08T23:04:32.310Z,14.05
2022-10-08T23:07:17.873Z,13.98
2022-10-08T23:10:04.458Z,13.78
2022-10-08T23:12:50.390Z,13.82
2022-10-08T23:15:36.967Z,14.00
2022-10-08T23:18:22.842Z,14.12
2022-10-08T23:21:10.260Z,14.18
2022-10-08T23:23:56.661Z,14.10
2022-10-08T23:26:42.839Z,14.18
2022-10-08T23:29:28.687Z,14.31
2022-10-08T23:32:14.545Z,14.19
2022-10-08T23:35:00.306Z,13.82
2022-10-08T23:37:48.559Z,13.78
2022-10-08T23:40:34.544Z,13.99
2022-10-08T23:43:20.836Z,13.44
2022-10-08T23:46:07.207Z,13.41
2022-10-08T23:48:53.790Z,12.89
2022-10-08T23:51:39.827Z,12.76
2022-10-08T23:54:25.701Z,12.21
2022-10-08T23:57:11.408Z,11.90
2022-10-08T23:59:57.230Z,12.10
